Time;durP1;ratioP1;P1;durP2;ratioP2;P2;SDS_P1;SDS_P2;PMS_P1;PMS_P2;Temp;Humidity;BMP_temperature;BMP_pressure;BME280_temperature;BME280_humidity;BME280_pressure;Samples;Min_cycle;Max_cycle;Signal;HPM_P1;HPM_P2
2021/09/04 00:00:48;;;;;;;11.10;8.45;;;;;;;12.09;100.00;95175.06;5015553;28;20022;-56
2021/09/04 00:03:14;;;;;;;10.90;8.80;;;;;;;12.06;100.00;95164.88;5015562;28;20061;-57
2021/09/04 00:05:48;;;;;;;12.48;8.98;;;;;;;12.10;100.00;95158.69;5015415;28;20396;-57
2021/09/04 00:08:20;;;;;;;10.63;8.30;;;;;;;12.07;100.00;95156.53;5015290;28;20073;-56
2021/09/04 00:10:52;;;;;;;11.82;8.80;;;;;;;12.02;100.00;95161.91;5034177;28;20086;-59
2021/09/04 00:13:18;;;;;;;13.50;9.18;;;;;;;12.02;100.00;95156.53;5015642;28;20100;-60
2021/09/04 00:15:46;;;;;;;13.10;9.05;;;;;;;12.04;100.00;95149.00;5015334;28;20087;-60
2021/09/04 00:18:20;;;;;;;12.13;9.82;;;;;;;12.03;100.00;95136.66;5015596;28;20026;-58
2021/09/04 00:20:48;;;;;;;13.30;9.40;;;;;;;11.98;100.00;95128.66;5015410;28;20017;-58
2021/09/04 00:23:14;;;;;;;16.00;9.90;;;;;;;11.94;100.00;95118.72;5015264;28;20106;-59
2021/09/04 00:25:44;;;;;;;13.30;9.52;;;;;;;11.90;100.00;95113.88;5015056;28;20044;-60
2021/09/04 00:28:17;;;;;;;15.73;10.20;;;;;;;11.91;100.00;95109.31;5015167;28;20041;-59
2021/09/04 00:30:54;;;;;;;;;;;;;;;11.89;100.00;95098.88;5015485;28;20026;-58
2021/09/04 00:33:23;;;;;;;11.98;9.30;;;;;;;11.86;100.00;95093.25;5013865;28;19916;-60
2021/09/04 00:35:48;;;;;;;12.43;9.60;;;;;;;11.80;100.00;95092.44;5021522;28;20029;-59
2021/09/04 00:38:17;;;;;;;11.85;9.07;;;;;;;11.76;100.00;95088.69;5034676;28;20029;-58
2021/09/04 00:40:42;;;;;;;13.13;9.88;;;;;;;11.70;100.00;95080.91;5034720;28;20021;-60
2021/09/04 00:43:13;;;;;;;14.75;9.15;;;;;;;11.66;100.00;95083.31;5034543;28;20033;-60
2021/09/04 00:45:56;;;;;;;13.15;9.38;;;;;;;11.58;100.00;95079.31;5034655;28;20419;-59
2021/09/04 00:48:22;;;;;;;13.13;9.65;;;;;;;11.54;100.00;95077.44;5034526;28;20029;-60
2021/09/04 00:50:50;;;;;;;14.80;9.48;;;;;;;11.58;100.00;95078.50;5033223;28;20529;-60
2021/09/04 00:53:16;;;;;;;13.88;10.25;;;;;;;11.63;100.00;95075.81;5034562;28;20021;-59
2021/09/04 00:55:44;;;;;;;15.20;10.35;;;;;;;11.62;100.00;95076.91;5034353;28;20029;-59
2021/09/04 00:58:09;;;;;;;13.45;10.23;;;;;;;11.59;100.00;95077.44;5032353;28;20044;-59
2021/09/04 01:00:35;;;;;;;11.77;9.32;;;;;;;11.55;100.00;95079.06;5034450;28;20021;-57
2021/09/04 01:03:09;;;;;;;13.48;9.75;;;;;;;11.49;100.00;95074.75;5034394;28;20368;-56
2021/09/04 01:05:35;;;;;;;14.65;10.00;;;;;;;11.52;100.00;95067.00;5033379;28;20029;-59
2021/09/04 01:08:00;;;;;;;12.65;9.48;;;;;;;11.50;100.00;95062.94;5034400;28;20483;-57
2021/09/04 01:10:35;;;;;;;11.65;9.57;;;;;;;11.45;100.00;95063.78;5033787;28;20040;-58
2021/09/04 01:13:01;;;;;;;12.23;9.60;;;;;;;11.40;100.00;95054.94;5014652;28;20366;-58
2021/09/04 01:15:36;;;;;;;16.73;9.95;;;;;;;11.37;100.00;95055.47;5013502;28;20036;-58
2021/09/04 01:18:07;;;;;;;11.60;9.27;;;;;;;11.31;100.00;95052.81;5021174;28;20029;-56
2021/09/04 01:20:38;;;;;;;12.02;9.13;;;;;;;11.25;100.00;95042.34;5034238;28;20473;-56
2021/09/04 01:23:07;;;;;;;15.65;10.32;;;;;;;11.28;100.00;95047.16;5033877;28;20029;-57
2021/09/04 01:25:33;;;;;;;16.05;10.20;;;;;;;11.37;100.00;95042.06;5033731;28;20030;-57
2021/09/04 01:28:01;;;;;;;12.57;9.02;;;;;;;11.35;100.00;95036.16;5034107;28;20535;-57
2021/09/04 01:30:29;;;;;;;13.45;8.63;;;;;;;11.29;100.00;95030.81;5033843;28;20033;-56
2021/09/04 01:32:57;;;;;;;12.32;9.60;;;;;;;11.24;100.00;95027.34;5033755;28;20030;-58
2021/09/04 01:35:26;;;;;;;12.73;9.82;;;;;;;11.21;100.00;95025.19;5032260;28;20037;-58
2021/09/04 01:37:54;;;;;;;12.77;9.43;;;;;;;11.20;100.00;95029.75;5033551;28;20029;-57
2021/09/04 01:40:30;;;;;;;11.15;8.82;;;;;;;11.23;100.00;95020.38;5032097;28;20017;-55
2021/09/04 01:43:00;;;;;;;12.10;9.25;;;;;;;11.24;100.00;95014.72;5032222;28;20030;-55
2021/09/04 01:45:26;;;;;;;14.77;9.63;;;;;;;11.29;100.00;95012.06;5033430;28;20048;-57
2021/09/04 01:47:52;;;;;;;14.88;9.95;;;;;;;11.34;100.00;95005.88;5031885;28;20026;-59
2021/09/04 01:50:17;;;;;;;14.65;10.70;;;;;;;11.35;100.00;95002.09;5031984;28;20037;-56
2021/09/04 01:52:46;;;;;;;14.65;10.40;;;;;;;11.35;100.00;95004.00;5033371;28;20080;-57
2021/09/04 01:55:19;;;;;;;14.18;10.77;;;;;;;11.36;100.00;95000.22;5033254;28;20021;-58
2021/09/04 01:57:45;;;;;;;14.10;9.93;;;;;;;11.30;100.00;94999.44;5031924;28;20025;-57
2021/09/04 02:00:15;;;;;;;16.88;10.73;;;;;;;11.29;100.00;94998.66;5033041;28;20087;-56
2021/09/04 02:02:46;;;;;;;14.15;10.32;;;;;;;11.32;100.00;94999.97;5031850;28;20492;-58
2021/09/04 02:05:12;;;;;;;13.45;9.88;;;;;;;11.27;100.00;95000.78;5033200;28;20484;-59
2021/09/04 02:07:55;;;;;;;14.55;10.30;;;;;;;11.31;100.00;94985.78;5032382;28;20221;-59
2021/09/04 02:10:23;;;;;;;15.30;10.52;;;;;;;11.34;100.00;94976.38;5032916;28;20033;-58
2021/09/04 02:12:56;;;;;;;15.40;10.73;;;;;;;11.33;100.00;94970.22;5014019;28;20038;-55
2021/09/04 02:15:23;;;;;;;17.52;10.65;;;;;;;11.33;100.00;94974.78;5013275;28;20022;-55
2021/09/04 02:17:51;;;;;;;12.35;9.35;;;;;;;11.36;100.00;94970.72;5011727;28;20443;-58
2021/09/04 02:20:17;;;;;;;13.65;9.80;;;;;;;11.36;100.00;94971.53;5011866;28;20119;-58
2021/09/04 02:22:44;;;;;;;12.65;9.43;;;;;;;11.35;100.00;94972.63;5012062;28;20417;-57
2021/09/04 02:25:10;;;;;;;13.57;9.00;;;;;;;11.32;100.00;94978.53;5012899;28;20481;-57
2021/09/04 02:27:41;;;;;;;11.75;8.95;;;;;;;11.28;100.00;94972.09;5012874;28;20098;-58
2021/09/04 02:30:07;;;;;;;13.40;9.20;;;;;;;11.33;100.00;94978.25;5008265;28;20052;-56
2021/09/04 02:32:42;;;;;;;14.20;9.10;;;;;;;11.31;100.00;94976.91;5031276;28;20021;-57
2021/09/04 02:35:08;;;;;;;12.02;8.98;;;;;;;11.34;100.00;94979.06;5033046;28;20036;-59
2021/09/04 02:37:37;;;;;;;13.32;9.05;;;;;;;11.33;100.00;94980.94;5031295;28;20391;-60
2021/09/04 02:40:06;;;;;;;12.65;9.10;;;;;;;11.29;100.00;94990.59;5032375;28;20029;-60
2021/09/04 02:42:32;;;;;;;15.15;8.73;;;;;;;11.20;100.00;94986.88;5032578;28;20029;-60
2021/09/04 02:44:57;;;;;;;13.05;9.18;;;;;;;11.12;100.00;95000.00;5031132;28;20507;-59
2021/09/04 02:47:23;;;;;;;14.40;9.32;;;;;;;11.02;100.00;94990.09;5032252;28;20025;-58
2021/09/04 02:49:48;;;;;;;11.45;8.13;;;;;;;10.98;100.00;94997.06;5032708;28;20025;-60
2021/09/04 02:52:14;;;;;;;11.57;8.40;;;;;;;10.90;100.00;94998.41;5032117;28;20483;-59
2021/09/04 02:54:39;;;;;;;13.82;8.20;;;;;;;10.83;100.00;94995.19;5032317;28;20350;-60
2021/09/04 02:57:04;;;;;;;11.77;8.32;;;;;;;10.77;100.00;95001.63;5032214;28;20032;-60
2021/09/04 02:59:36;;;;;;;14.85;9.52;;;;;;;10.87;100.00;94995.47;5032167;28;20044;-60
2021/09/04 03:02:04;;;;;;;13.52;9.88;;;;;;;10.92;100.00;94992.78;5032192;28;20435;-60
2021/09/04 03:04:35;;;;;;;13.27;9.27;;;;;;;10.88;100.00;94987.16;5032188;28;20029;-58
2021/09/04 03:07:19;;;;;;;13.73;9.15;;;;;;;10.85;100.00;94976.97;5031590;28;20056;-58
2021/09/04 03:09:47;;;;;;;11.50;9.00;;;;;;;10.80;100.00;94987.69;5032040;28;20025;-60
2021/09/04 03:12:12;;;;;;;13.00;9.18;;;;;;;10.73;100.00;94979.09;5019609;28;20477;-60
2021/09/04 03:14:40;;;;;;;15.40;9.27;;;;;;;10.73;100.00;94987.94;5012256;28;20026;-56
2021/09/04 03:17:08;;;;;;;12.30;8.85;;;;;;;10.71;100.00;94983.94;5012395;28;20029;-57
2021/09/04 03:19:43;;;;;;;11.10;9.15;;;;;;;10.67;100.00;94989.03;5010967;28;20026;-57
2021/09/04 03:22:08;;;;;;;17.30;10.30;;;;;;;10.62;100.00;94989.03;5014678;28;20025;-58
2021/09/04 03:24:35;;;;;;;14.55;10.02;;;;;;;10.64;100.00;94981.53;5016390;28;20370;-57
2021/09/04 03:27:02;;;;;;;12.05;10.00;;;;;;;10.64;100.00;94968.16;5014822;28;20440;-58
2021/09/04 03:29:30;;;;;;;13.15;10.20;;;;;;;10.64;100.00;94975.38;5016432;28;20030;-59
2021/09/04 03:31:55;;;;;;;12.45;9.70;;;;;;;10.64;100.00;94976.19;5014775;28;20033;-59
2021/09/04 03:34:26;;;;;;;12.70;10.02;;;;;;;10.61;100.00;94965.19;5016494;28;20025;-59
2021/09/04 03:36:56;;;;;;;13.85;9.57;;;;;;;10.57;100.00;94969.47;5016581;28;20029;-59
2021/09/04 03:39:25;;;;;;;12.20;8.77;;;;;;;10.51;100.00;94965.97;5009248;28;20029;-57
2021/09/04 03:41:50;;;;;;;14.23;9.40;;;;;;;10.45;100.00;94956.34;5016095;28;20018;-57
2021/09/04 03:44:16;;;;;;;12.70;9.30;;;;;;;10.40;100.00;94961.69;5015997;28;20033;-58
2021/09/04 03:46:44;;;;;;;14.73;9.90;;;;;;;10.39;100.00;94960.09;5015801;28;20033;-58
2021/09/04 03:49:09;;;;;;;13.85;9.68;;;;;;;10.36;100.00;94957.94;5015934;28;20022;-56
2021/09/04 03:51:37;;;;;;;12.50;8.93;;;;;;;10.33;100.00;94959.28;5015741;28;20432;-56
2021/09/04 03:54:03;;;;;;;14.98;9.23;;;;;;;10.31;100.00;94961.44;5015734;28;20045;-58
2021/09/04 03:56:33;;;;;;;11.98;8.80;;;;;;;10.27;100.00;94963.00;5015710;28;20058;-56
2021/09/04 03:59:02;;;;;;;11.32;8.93;;;;;;;10.22;100.00;94962.22;5014269;28;20029;-58
2021/09/04 04:01:27;;;;;;;15.23;8.73;;;;;;;10.17;100.00;94957.59;5015864;28;20477;-60
2021/09/04 04:03:55;;;;;;;11.98;9.60;;;;;;;10.24;100.00;94960.06;5015656;28;20033;-60
2021/09/04 04:06:20;;;;;;;13.32;9.20;;;;;;;10.25;100.00;94953.66;5015608;28;20091;-59
2021/09/04 04:08:48;;;;;;;11.95;8.80;;;;;;;10.22;100.00;94951.50;5020601;28;20054;-60
2021/09/04 04:11:19;;;;;;;11.50;8.00;;;;;;;10.17;100.00;94949.56;5030635;28;20430;-60
2021/09/04 04:13:47;;;;;;;12.60;8.88;;;;;;;10.17;100.00;94949.56;5015322;28;20057;-60
2021/09/04 04:16:27;;;;;;;10.45;8.38;;;;;;;10.16;100.00;94940.75;5015402;28;20424;-60
2021/09/04 04:18:53;;;;;;;14.15;8.35;;;;;;;10.13;100.00;94937.81;5015286;28;20018;-59
2021/09/04 04:21:24;;;;;;;12.27;8.90;;;;;;;10.13;100.00;94933.25;5015231;28;20068;-60
2021/09/04 04:23:50;;;;;;;11.68;8.93;;;;;;;10.12;100.00;94936.19;5015183;28;20083;-59
2021/09/04 04:26:18;;;;;;;12.98;8.35;;;;;;;10.10;100.00;94931.13;5013832;28;20026;-60
2021/09/04 04:28:47;;;;;;;11.05;8.45;;;;;;;10.06;100.00;94937.25;5015279;28;20076;-60
2021/09/04 04:31:18;;;;;;;11.55;8.93;;;;;;;10.02;100.00;94931.63;5015060;28;20026;-59
2021/09/04 04:33:46;;;;;;;12.93;8.93;;;;;;;10.05;100.00;94939.13;5013924;28;20029;-59
2021/09/04 04:36:14;;;;;;;12.38;8.90;;;;;;;10.02;100.00;94930.84;5013748;28;20034;-53
2021/09/04 04:38:42;;;;;;;14.40;8.73;;;;;;;10.02;100.00;94933.50;5014858;28;20030;-59
2021/09/04 04:41:25;;;;;;;12.60;9.15;;;;;;;10.07;100.00;94930.81;5015131;28;20503;-56
2021/09/04 04:44:01;;;;;;;;;;;;;;;10.05;100.00;94924.94;5015447;28;20133;-58
2021/09/04 04:46:28;;;;;;;16.45;7.65;;;;;;;10.01;100.00;94934.56;5014859;28;19910;-55
2021/09/04 04:48:56;;;;;;;13.10;8.07;;;;;;;9.99;100.00;94934.03;5014614;28;20053;-58
2021/09/04 04:51:22;;;;;;;10.60;7.60;;;;;;;9.98;100.00;94929.72;5014635;28;20088;-58
2021/09/04 04:53:47;;;;;;;14.07;7.82;;;;;;;9.98;100.00;94933.22;5014793;28;20022;-57
2021/09/04 04:56:24;;;;;;;10.18;7.68;;;;;;;10.03;100.00;94940.47;5013616;28;20030;-58
2021/09/04 04:58:50;;;;;;;13.75;7.90;;;;;;;10.12;100.00;94931.66;5014594;28;20030;-55
2021/09/04 05:01:20;;;;;;;12.13;8.48;;;;;;;10.17;100.00;94933.53;5013167;28;20037;-55
2021/09/04 05:03:52;;;;;;;12.40;8.32;;;;;;;10.20;100.00;94927.63;5014103;28;20036;-58
2021/09/04 05:06:23;;;;;;;11.82;8.30;;;;;;;10.18;100.00;94933.25;5014404;28;20361;-54
2021/09/04 05:08:49;;;;;;;15.23;9.27;;;;;;;10.17;100.00;94922.81;5018470;28;20037;-57
2021/09/04 05:11:17;;;;;;;13.32;8.88;;;;;;;10.14;100.00;94926.84;5031284;28;20382;-54
2021/09/04 05:13:48;;;;;;;14.45;9.27;;;;;;;10.17;100.00;94928.16;5032274;28;20438;-57
2021/09/04 05:16:15;;;;;;;14.20;9.48;;;;;;;10.19;100.00;94928.69;5033532;28;20018;-54
2021/09/04 05:18:42;;;;;;;12.15;8.90;;;;;;;10.25;100.00;94927.69;5013583;28;20038;-56
2021/09/04 05:21:14;;;;;;;11.95;9.27;;;;;;;10.30;100.00;94924.19;5014567;28;20025;-56
2021/09/04 05:23:46;;;;;;;14.57;8.63;;;;;;;10.35;100.00;94922.34;5014487;28;20057;-58
2021/09/04 05:26:13;;;;;;;13.65;8.25;;;;;;;10.43;100.00;94924.50;5014011;28;20064;-56
2021/09/04 05:28:39;;;;;;;13.73;8.40;;;;;;;10.55;100.00;94926.91;5012608;28;20381;-57
2021/09/04 05:31:04;;;;;;;18.98;7.90;;;;;;;10.62;100.00;94916.69;5024222;28;20022;-59
2021/09/04 05:33:30;;;;;;;12.32;8.88;;;;;;;10.64;100.00;94919.94;5012748;28;20383;-54
2021/09/04 05:35:56;;;;;;;10.90;8.57;;;;;;;10.64;100.00;94921.81;5012689;28;20045;-56
2021/09/04 05:38:24;;;;;;;14.48;9.23;;;;;;;10.67;100.00;94915.91;5013709;28;20392;-53
2021/09/04 05:40:52;;;;;;;12.63;8.57;;;;;;;10.70;100.00;94918.03;5012384;28;20037;-58
2021/09/04 05:43:20;;;;;;;13.00;9.13;;;;;;;10.74;100.00;94919.09;5009794;28;20037;-56
2021/09/04 05:45:48;;;;;;;11.07;8.48;;;;;;;10.79;100.00;94923.66;5026037;28;20112;-59
2021/09/04 05:48:13;;;;;;;10.05;8.02;;;;;;;10.85;100.00;94926.06;5020271;28;20442;-58
2021/09/04 05:50:39;;;;;;;12.32;9.30;;;;;;;11.00;100.00;94919.88;5011020;28;20045;-59
2021/09/04 05:53:04;;;;;;;19.10;10.90;;;;;;;11.21;100.00;94915.28;5026914;28;20033;-59
2021/09/04 05:55:32;;;;;;;13.48;10.38;;;;;;;11.43;100.00;94914.94;5017642;28;20029;-59
2021/09/04 05:57:57;;;;;;;17.50;12.95;;;;;;;11.74;100.00;94910.25;5023640;28;20412;-59
2021/09/04 06:00:25;;;;;;;20.55;11.55;;;;;;;11.99;100.00;94896.72;5021624;28;20025;-57
2021/09/04 06:02:52;;;;;;;22.52;13.60;;;;;;;12.27;100.00;94887.16;5014792;28;20204;-57
2021/09/04 06:05:23;;;;;;;17.35;11.80;;;;;;;12.51;100.00;94886.41;5023132;28;20029;-58
2021/09/04 06:07:49;;;;;;;13.30;9.98;;;;;;;12.70;100.00;94890.03;5027714;28;20049;-59
2021/09/04 06:10:22;;;;;;;15.05;10.48;;;;;;;12.87;100.00;94894.97;5025773;28;20024;-55
2021/09/04 06:12:47;;;;;;;;;;;;;;;13.10;100.00;94898.75;5014300;28;20025;-57
2021/09/04 06:15:13;;;;;;;12.47;8.90;;;;;;;13.31;100.00;94897.50;5024101;28;20387;-60
2021/09/04 06:17:40;;;;;;;14.65;8.88;;;;;;;13.42;100.00;94904.34;5018651;28;20452;-58
2021/09/04 06:20:08;;;;;;;11.48;8.90;;;;;;;13.62;100.00;94898.72;5018742;28;20034;-56
2021/09/04 06:22:37;;;;;;;9.40;7.65;;;;;;;13.81;100.00;94901.47;5027672;28;20032;-59
2021/09/04 06:25:07;;;;;;;10.38;7.65;;;;;;;14.07;100.00;94901.91;5010465;28;20032;-59
2021/09/04 06:27:35;;;;;;;12.38;8.32;;;;;;;14.29;100.00;94895.13;5014595;28;20022;-59
2021/09/04 06:30:05;;;;;;;11.80;7.90;;;;;;;14.50;100.00;94894.56;5012324;28;20036;-57
2021/09/04 06:32:30;;;;;;;13.27;8.68;;;;;;;14.68;100.00;94894.84;5020919;28;20034;-57
2021/09/04 06:34:56;;;;;;;9.43;7.55;;;;;;;14.85;100.00;94888.88;5020558;28;20543;-59
2021/09/04 06:37:23;;;;;;;9.63;7.53;;;;;;;15.09;100.00;94889.53;5018990;28;20025;-55
2021/09/04 06:39:49;;;;;;;8.82;7.07;;;;;;;15.34;100.00;94883.66;5020162;28;20028;-60
2021/09/04 06:42:19;;;;;;;9.43;7.10;;;;;;;15.55;100.00;94870.56;5032542;28;20022;-60
2021/09/04 06:44:45;;;;;;;9.43;7.20;;;;;;;15.88;100.00;94867.75;5031150;28;20025;-58
2021/09/04 06:47:10;;;;;;;11.43;7.78;;;;;;;16.09;100.00;94855.41;5032388;28;20510;-59
2021/09/04 06:49:36;;;;;;;8.52;6.35;;;;;;;16.28;100.00;94839.03;5015080;28;20481;-57
2021/09/04 06:52:01;;;;;;;8.52;6.88;;;;;;;16.48;100.00;94822.28;5012418;28;20025;-58
2021/09/04 06:54:30;;;;;;;8.35;6.60;;;;;;;16.69;100.00;94805.59;5012506;28;20022;-57
2021/09/04 06:57:00;;;;;;;9.13;5.85;;;;;;;16.88;100.00;94779.13;5011792;28;20065;-58
2021/09/04 06:59:25;;;;;;;10.25;6.93;;;;;;;17.07;100.00;94747.22;5012624;28;20026;-60
2021/09/04 07:01:52;;;;;;;11.27;6.95;;;;;;;17.16;100.00;94719.41;5011867;28;20520;-55
2021/09/04 07:04:17;;;;;;;9.98;6.85;;;;;;;17.31;100.00;94686.44;5012451;28;20032;-59
2021/09/04 07:06:43;;;;;;;8.65;6.82;;;;;;;17.45;100.00;94635.66;5012894;28;20026;-58
2021/09/04 07:09:08;;;;;;;11.65;7.35;;;;;;;17.66;100.00;94593.25;5012719;28;20571;-55
2021/09/04 07:11:34;;;;;;;9.48;6.82;;;;;;;17.87;100.00;94569.03;5011636;28;20029;-55
2021/09/04 07:14:02;;;;;;;11.05;6.55;;;;;;;18.16;100.00;94562.09;5012525;28;20072;-56
2021/09/04 07:16:28;;;;;;;7.70;5.93;;;;;;;18.27;100.00;94563.31;5030358;28;20029;-56
2021/09/04 07:18:53;;;;;;;7.80;6.40;;;;;;;18.51;100.00;94565.44;5012893;28;20469;-59
2021/09/04 07:21:21;;;;;;;10.45;7.10;;;;;;;18.70;100.00;94575.91;5012213;28;20038;-59
2021/09/04 07:23:57;;;;;;;8.60;6.63;;;;;;;18.91;100.00;94592.22;4988897;28;20486;-58
2021/09/04 07:26:25;;;;;;;10.27;6.47;;;;;;;19.13;100.00;94615.53;5016605;28;20381;-59
2021/09/04 07:28:51;;;;;;;10.98;7.00;;;;;;;19.45;100.00;94631.13;5012093;28;20061;-56
2021/09/04 07:31:19;;;;;;;10.02;6.95;;;;;;;19.76;100.00;94674.22;5011021;28;20049;-59
2021/09/04 07:33:45;;;;;;;12.15;7.32;;;;;;;20.01;100.00;94698.75;5010895;28;20025;-60
2021/09/04 07:36:10;;;;;;;8.95;6.88;;;;;;;20.23;100.00;94741.91;5010896;28;20018;-60
2021/09/04 07:38:38;;;;;;;9.93;7.05;;;;;;;20.45;100.00;94790.53;5012127;28;20539;-59
2021/09/04 07:41:09;;;;;;;9.35;6.50;;;;;;;20.72;100.00;94842.78;5012129;28;20790;-61
2021/09/04 07:43:37;;;;;;;7.85;6.28;;;;;;;20.94;100.00;94875.06;5012873;28;20029;-56
2021/09/04 07:46:03;;;;;;;8.63;6.60;;;;;;;21.17;100.00;94894.56;5008149;28;20029;-57
2021/09/04 07:48:28;;;;;;;8.10;6.72;;;;;;;21.34;100.00;94951.59;5014524;28;20053;-60
2021/09/04 07:50:55;;;;;;;8.15;6.25;;;;;;;21.46;100.00;94991.72;5010626;28;20018;-58
2021/09/04 07:53:21;;;;;;;6.63;5.63;;;;;;;21.53;100.00;95051.13;5011109;28;20408;-59
2021/09/04 07:55:49;;;;;;;7.53;5.25;;;;;;;21.72;100.00;95099.72;5010821;28;20022;-58
2021/09/04 07:58:17;;;;;;;7.25;5.20;;;;;;;21.95;100.00;95139.91;5008596;28;20026;-58
2021/09/04 08:00:44;;;;;;;5.60;5.03;;;;;;;22.18;100.00;95173.06;5010703;28;20022;-60
2021/09/04 08:03:10;;;;;;;6.80;5.22;;;;;;;22.34;100.00;95183.34;5010344;28;20026;-56
2021/09/04 08:05:37;;;;;;;6.80;5.30;;;;;;;22.40;100.00;95206.56;5010196;28;20546;-59
2021/09/04 08:08:03;;;;;;;7.47;5.55;;;;;;;22.63;100.00;95250.66;5016192;28;20084;-57
2021/09/04 08:10:34;;;;;;;5.88;4.85;;;;;;;22.84;100.00;95245.94;5018219;28;20042;-58
2021/09/04 08:13:03;;;;;;;7.50;5.18;;;;;;;22.96;100.00;95264.28;5016811;28;20484;-58
2021/09/04 08:15:33;;;;;;;10.25;5.90;;;;;;;23.03;100.00;95294.59;5023752;28;20026;-59
2021/09/04 08:17:59;;;;;;;6.55;5.75;;;;;;;22.90;100.00;95315.59;5023626;28;20373;-57
2021/09/04 08:20:30;;;;;;;6.35;5.13;;;;;;;22.92;100.00;95302.41;5013948;28;20041;-60
2021/09/04 08:23:07;;;;;;;7.05;5.40;;;;;;;23.10;100.00;95313.94;5015242;28;20156;-58
2021/09/04 08:25:35;;;;;;;8.68;5.82;;;;;;;23.16;100.00;95323.53;5022109;28;20021;-59
2021/09/04 08:28:06;;;;;;;7.80;5.03;;;;;;;23.16;100.00;95344.59;5034721;28;20033;-60
2021/09/04 08:30:32;;;;;;;6.13;5.22;;;;;;;23.20;100.00;95340.03;5035015;28;20029;-59
2021/09/04 08:33:03;;;;;;;7.20;4.97;;;;;;;23.32;100.00;95331.84;5033630;28;20022;-61
2021/09/04 08:35:32;;;;;;;7.10;5.18;;;;;;;23.43;100.00;95314.66;5034420;28;20075;-61
2021/09/04 08:37:59;;;;;;;7.20;5.50;;;;;;;23.61;100.00;95314.47;5034376;28;20032;-61
2021/09/04 08:40:24;;;;;;;9.43;5.25;;;;;;;23.80;100.00;95344.00;5033343;28;20072;-61
2021/09/04 08:42:51;;;;;;;6.50;5.25;;;;;;;23.91;100.00;95359.59;5033519;28;20029;-61
2021/09/04 08:45:19;;;;;;;7.63;5.38;;;;;;;24.06;100.00;95355.34;5034894;28;20021;-61
2021/09/04 08:47:51;;;;;;;6.00;4.90;;;;;;;24.38;100.00;95371.97;5033448;28;20108;-61
2021/09/04 08:50:18;;;;;;;;;;;;;;;24.56;100.00;95392.50;5035329;28;20026;-61
2021/09/04 08:52:48;;;;;;;6.43;5.32;;;;;;;24.65;100.00;95395.88;5034823;28;20333;-61
2021/09/04 08:55:16;;;;;;;7.22;4.78;;;;;;;24.89;100.00;95399.69;5034645;28;20026;-59
2021/09/04 08:57:41;;;;;;;6.18;5.18;;;;;;;25.00;100.00;95445.44;5034413;28;20079;-60
2021/09/04 09:00:15;;;;;;;6.63;5.13;;;;;;;25.19;100.00;95433.84;5034437;28;20460;-58
2021/09/04 09:02:44;;;;;;;6.43;5.03;;;;;;;25.33;100.00;95452.63;5034369;28;20037;-58
2021/09/04 09:05:10;;;;;;;7.22;5.25;;;;;;;25.43;100.00;95449.38;5034123;28;20546;-60
2021/09/04 09:07:48;;;;;;;6.82;5.15;;;;;;;25.45;100.00;95452.56;5033917;28;20045;-61
2021/09/04 09:10:23;;;;;;;7.07;5.57;;;;;;;25.48;100.00;95465.56;5032861;28;20025;-60
2021/09/04 09:12:50;;;;;;;7.35;5.22;;;;;;;25.63;100.00;95462.09;5032867;28;20022;-60
2021/09/04 09:15:26;;;;;;;6.32;5.28;;;;;;;25.96;100.00;95461.78;5033709;28;20027;-59
2021/09/04 09:18:07;;;;;;;10.48;5.80;;;;;;;26.10;100.00;95469.56;5023277;28;20432;-60
2021/09/04 09:20:34;;;;;;;6.28;5.45;;;;;;;26.15;100.00;95479.47;5013701;28;20165;-58
2021/09/04 09:23:09;;;;;;;7.70;5.60;;;;;;;26.23;100.00;95459.28;5013016;28;20049;-59
2021/09/04 09:25:46;;;;;;;6.30;5.13;;;;;;;26.13;100.00;95476.28;5021436;28;20025;-58
2021/09/04 09:28:19;;;;;;;6.50;5.80;;;;;;;26.21;100.00;95467.88;5033576;28;20068;-59
2021/09/04 09:30:53;;;;;;;8.20;5.82;;;;;;;26.21;100.00;95473.38;5033973;28;20052;-58
2021/09/04 09:33:27;;;;;;;7.63;5.65;;;;;;;26.35;100.00;95469.38;5033775;28;20124;-60
2021/09/04 09:35:58;;;;;;;7.05;5.95;;;;;;;26.48;100.00;95468.13;5033733;28;20017;-57
2021/09/04 09:38:31;;;;;;;8.65;6.40;;;;;;;26.50;100.00;95460.34;5033480;28;20025;-59
2021/09/04 09:40:57;;;;;;;5.93;5.32;;;;;;;26.64;100.00;95452.44;5033642;28;20566;-59
2021/09/04 09:43:28;;;;;;;9.13;8.13;;;;;;;26.88;100.00;95471.41;5033595;28;20388;-60
2021/09/04 09:46:02;;;;;;;10.63;7.78;;;;;;;26.98;100.00;95494.00;5033569;28;20380;-59
2021/09/04 09:48:30;;;;;;;8.30;7.38;;;;;;;26.91;100.00;95480.09;5033504;28;20065;-58
2021/09/04 09:51:01;;;;;;;9.98;7.75;;;;;;;26.41;100.00;95465.25;5033385;28;20014;-60
2021/09/04 09:53:29;;;;;;;7.68;6.88;;;;;;;26.57;100.00;95466.00;5032154;28;20025;-60
2021/09/04 09:55:57;;;;;;;9.88;7.50;;;;;;;26.66;100.00;95474.84;5033336;28;20052;-59
2021/09/04 09:58:27;;;;;;;11.60;7.40;;;;;;;26.70;100.00;95470.25;5033290;28;20502;-60
2021/09/04 10:00:57;;;;;;;7.63;6.68;;;;;;;26.98;100.00;95461.00;5033129;28;20029;-59
2021/09/04 10:03:30;;;;;;;14.30;7.32;;;;;;;26.96;100.00;95468.81;5033154;28;20052;-61
2021/09/04 10:06:04;;;;;;;8.25;6.53;;;;;;;26.91;100.00;95474.59;5032033;28;20037;-57
2021/09/04 10:08:30;;;;;;;9.00;7.50;;;;;;;26.88;100.00;95484.34;5033047;28;20049;-61
2021/09/04 10:10:56;;;;;;;8.38;6.53;;;;;;;26.80;100.00;95471.59;5032914;28;20404;-59
2021/09/04 10:13:21;;;;;;;7.75;6.95;;;;;;;26.87;100.00;95469.03;5031744;28;20029;-61
2021/09/04 10:15:50;;;;;;;7.22;6.40;;;;;;;27.09;100.00;95473.84;5032727;28;20028;-61
2021/09/04 10:18:21;;;;;;;7.85;6.97;;;;;;;27.25;100.00;95470.25;5018885;28;20369;-58
2021/09/04 10:21:14;;;;;;;7.97;6.97;;;;;;;27.23;100.00;95486.28;5011874;28;20021;-61
2021/09/04 10:23:47;;;;;;;10.48;7.75;;;;;;;26.75;100.00;95477.41;5011775;28;20025;-61
2021/09/04 10:26:34;;;;;;;10.45;7.03;;;;;;;26.74;100.00;95462.84;5011693;28;20038;-61
2021/09/04 10:29:07;;;;;;;8.82;7.20;;;;;;;26.82;100.00;95445.38;5020372;28;20036;-61
2021/09/04 10:32:02;;;;;;;9.02;6.78;;;;;;;26.65;100.00;95481.50;5031800;28;20365;-60
2021/09/04 10:34:38;;;;;;;9.48;7.70;;;;;;;26.46;100.00;95489.66;5031399;28;20183;-61
2021/09/04 10:37:13;;;;;;;7.10;6.40;;;;;;;26.71;100.00;95482.81;5031376;28;20057;-59
2021/09/04 10:39:55;;;;;;;9.68;7.85;;;;;;;26.81;100.00;95486.94;5032485;28;20037;-60
2021/09/04 10:42:47;;;;;;;11.77;7.50;;;;;;;27.02;100.00;95470.13;5032555;28;20029;-59
2021/09/04 10:45:16;;;;;;;7.93;6.70;;;;;;;27.35;100.00;95484.22;5032405;28;20065;-61
2021/09/04 10:48:14;;;;;;;8.13;7.05;;;;;;;27.52;97.38;95499.47;5032332;28;20030;-60
2021/09/04 10:51:08;;;;;;;9.10;6.90;;;;;;;27.84;99.16;95491.84;5032449;28;20119;-60
2021/09/04 10:53:48;;;;;;;6.22;5.68;;;;;;;28.06;94.48;95497.72;5030910;28;20033;-61
2021/09/04 10:56:55;;;;;;;7.63;6.55;;;;;;;28.19;91.46;95510.16;5032280;28;20534;-62
2021/09/04 11:00:00;;;;;;;7.95;6.38;;;;;;;28.27;90.26;95509.13;5032213;28;20035;-62
2021/09/04 11:02:48;;;;;;;8.05;6.32;;;;;;;28.33;87.32;95521.47;5031116;28;20060;-62
2021/09/04 11:06:04;;;;;;;9.10;7.13;;;;;;;28.41;89.66;95503.88;5031412;28;20465;-61
2021/09/04 11:08:24;;;;;;;8.18;7.18;;;;;;;28.41;88.40;95514.09;5031557;28;20058;-58
2021/09/04 11:11:10;;;;;;;7.55;6.80;;;;;;;28.30;94.26;95491.88;5029827;28;20105;-60
2021/09/04 11:13:56;;;;;;;10.38;7.60;;;;;;;28.08;94.97;95484.38;5023816;28;20377;-59
2021/09/04 11:16:27;;;;;;;10.68;7.32;;;;;;;27.69;100.00;95451.47;5023462;28;20507;-61
2021/09/04 11:19:14;;;;;;;7.82;6.43;;;;;;;27.53;90.99;95481.78;5020917;28;20415;-61
2021/09/04 11:22:24;;;;;;;7.13;6.43;;;;;;;27.65;94.43;95480.88;5020063;28;20030;-61
2021/09/04 11:24:54;;;;;;;7.13;5.93;;;;;;;27.75;91.93;95491.28;5036689;28;20037;-61
2021/09/04 11:27:23;;;;;;;8.38;7.07;;;;;;;27.87;88.96;95496.59;5018971;28;20030;-61
2021/09/04 11:29:57;;;;;;;7.32;6.53;;;;;;;28.01;91.04;95483.13;5012579;28;20022;-60
2021/09/04 11:32:29;;;;;;;8.35;6.78;;;;;;;28.16;96.67;95472.34;5019132;28;20025;-61
2021/09/04 11:34:58;;;;;;;7.68;6.97;;;;;;;28.18;98.13;95465.28;5029356;28;20025;-61